sensor_id;sensor_type;location;lat;lon;timestamp;pressure;altitude;pressure_sealevel;temperature;humidity
74542;BME280;63015;45.378;20.360;2022-11-15T00:01:20;101147.06;;;8.25;69.38
74542;BME280;63015;45.378;20.360;2022-11-15T00:03:39;101147.06;;;8.25;69.25
74542;BME280;63015;45.378;20.360;2022-11-15T00:06:03;101137.63;;;8.29;69.22
74542;BME280;63015;45.378;20.360;2022-11-15T00:08:22;101142.00;;;8.31;69.09
74542;BME280;63015;45.378;20.360;2022-11-15T00:10:42;101134.16;;;8.28;69.42
74542;BME280;63015;45.378;20.360;2022-11-15T00:13:10;101131.59;;;8.30;69.81
74542;BME280;63015;45.378;20.360;2022-11-15T00:15:29;101133.38;;;8.32;69.23
74542;BME280;63015;45.378;20.360;2022-11-15T00:17:49;101141.16;;;8.32;69.34
74542;BME280;63015;45.378;20.360;2022-11-15T00:20:08;101142.88;;;8.32;69.61
74542;BME280;63015;45.378;20.360;2022-11-15T00:22:34;101149.94;;;8.37;69.16
74542;BME280;63015;45.378;20.360;2022-11-15T00:24:53;101152.53;;;8.37;69.41
74542;BME280;63015;45.378;20.360;2022-11-15T00:27:12;101156.00;;;8.39;69.34
74542;BME280;63015;45.378;20.360;2022-11-15T00:29:31;101162.06;;;8.38;69.59
74542;BME280;63015;45.378;20.360;2022-11-15T00:31:50;101163.91;;;8.44;68.99
74542;BME280;63015;45.378;20.360;2022-11-15T00:34:09;101161.47;;;8.50;68.87
74542;BME280;63015;45.378;20.360;2022-11-15T00:36:32;101162.34;;;8.51;69.02
74542;BME280;63015;45.378;20.360;2022-11-15T00:38:52;101160.63;;;8.51;68.85
74542;BME280;63015;45.378;20.360;2022-11-15T00:41:11;101151.97;;;8.52;68.77
74542;BME280;63015;45.378;20.360;2022-11-15T00:43:30;101154.50;;;8.48;69.34
74542;BME280;63015;45.378;20.360;2022-11-15T00:45:49;101159.72;;;8.51;69.19
74542;BME280;63015;45.378;20.360;2022-11-15T00:48:09;101159.81;;;8.54;68.73
74542;BME280;63015;45.378;20.360;2022-11-15T00:50:28;101157.22;;;8.55;68.54
74542;BME280;63015;45.378;20.360;2022-11-15T00:52:48;101151.97;;;8.52;69.00
74542;BME280;63015;45.378;20.360;2022-11-15T00:55:17;101150.13;;;8.47;69.35
74542;BME280;63015;45.378;20.360;2022-11-15T00:57:36;101162.34;;;8.51;68.80
74542;BME280;63015;45.378;20.360;2022-11-15T00:59:55;101159.69;;;8.48;69.16
74542;BME280;63015;45.378;20.360;2022-11-15T01:02:15;101153.56;;;8.46;69.28
74542;BME280;63015;45.378;20.360;2022-11-15T01:04:34;101150.00;;;8.42;69.81
74542;BME280;63015;45.378;20.360;2022-11-15T01:06:53;101145.56;;;8.36;69.90
74542;BME280;63015;45.378;20.360;2022-11-15T01:09:12;101143.75;;;8.31;70.33
74542;BME280;63015;45.378;20.360;2022-11-15T01:11:32;101148.13;;;8.33;69.93
74542;BME280;63015;45.378;20.360;2022-11-15T01:13:51;101142.13;;;8.36;69.81
74542;BME280;63015;45.378;20.360;2022-11-15T01:16:15;101146.38;;;8.32;70.06
74542;BME280;63015;45.378;20.360;2022-11-15T01:18:36;101141.16;;;8.31;69.93
74542;BME280;63015;45.378;20.360;2022-11-15T01:20:55;101135.06;;;8.30;69.75
74542;BME280;63015;45.378;20.360;2022-11-15T01:23:14;101135.91;;;8.29;69.95
74542;BME280;63015;45.378;20.360;2022-11-15T01:25:33;101130.66;;;8.26;70.20
74542;BME280;63015;45.378;20.360;2022-11-15T01:27:52;101129.75;;;8.24;70.30
74542;BME280;63015;45.378;20.360;2022-11-15T01:30:11;101130.53;;;8.20;70.90
74542;BME280;63015;45.378;20.360;2022-11-15T01:32:31;101125.47;;;8.26;70.35
74542;BME280;63015;45.378;20.360;2022-11-15T01:34:50;101122.84;;;8.25;70.59
74542;BME280;63015;45.378;20.360;2022-11-15T01:37:09;101123.72;;;8.27;70.13
74542;BME280;63015;45.378;20.360;2022-11-15T01:39:28;101123.72;;;8.25;70.47
74542;BME280;63015;45.378;20.360;2022-11-15T01:41:47;101121.91;;;8.22;70.78
74542;BME280;63015;45.378;20.360;2022-11-15T01:46:53;101111.63;;;8.26;70.53
74542;BME280;63015;45.378;20.360;2022-11-15T01:49:17;101113.25;;;8.20;70.66
74542;BME280;63015;45.378;20.360;2022-11-15T01:51:38;101112.31;;;8.18;70.94
74542;BME280;63015;45.378;20.360;2022-11-15T01:54:02;101109.72;;;8.18;71.39
74542;BME280;63015;45.378;20.360;2022-11-15T01:56:25;101123.47;;;8.13;71.37
74542;BME280;63015;45.378;20.360;2022-11-15T01:58:46;101111.34;;;8.12;71.71
74542;BME280;63015;45.378;20.360;2022-11-15T02:01:05;101113.81;;;8.05;71.91
74542;BME280;63015;45.378;20.360;2022-11-15T02:03:31;101105.03;;;8.00;72.07
74542;BME280;63015;45.378;20.360;2022-11-15T02:05:52;101107.69;;;8.03;72.02
74542;BME280;63015;45.378;20.360;2022-11-15T02:08:12;101108.50;;;8.01;71.99
74542;BME280;63015;45.378;20.360;2022-11-15T02:10:38;101111.16;;;8.02;71.92
74542;BME280;63015;45.378;20.360;2022-11-15T02:12:59;101111.88;;;7.97;72.13
74542;BME280;63015;45.378;20.360;2022-11-15T02:15:19;101102.34;;;7.96;72.35
74542;BME280;63015;45.378;20.360;2022-11-15T02:18:11;101103.91;;;7.87;72.50
74542;BME280;63015;45.378;20.360;2022-11-15T02:36:01;101100.31;;;7.81;71.82
74542;BME280;63015;45.378;20.360;2022-11-15T02:41:25;101101.03;;;7.75;71.54
74542;BME280;63015;45.378;20.360;2022-11-15T02:43:50;101100.00;;;7.67;72.26
74542;BME280;63015;45.378;20.360;2022-11-15T02:48:39;101094.72;;;7.62;72.24
74542;BME280;63015;45.378;20.360;2022-11-15T02:51:00;101091.28;;;7.63;71.98
74542;BME280;63015;45.378;20.360;2022-11-15T02:53:24;101099.88;;;7.61;72.14
74542;BME280;63015;45.378;20.360;2022-11-15T02:55:46;101102.31;;;7.54;72.38
74542;BME280;63015;45.378;20.360;2022-11-15T02:58:27;101097.13;;;7.54;72.30
74542;BME280;63015;45.378;20.360;2022-11-15T03:09:04;101087.25;;;7.38;73.09
74542;BME280;63015;45.378;20.360;2022-11-15T03:11:29;101093.38;;;7.40;72.53
74542;BME280;63015;45.378;20.360;2022-11-15T03:17:01;101091.56;;;7.37;72.94
74542;BME280;63015;45.378;20.360;2022-11-15T03:19:43;101086.38;;;7.37;72.77
74542;BME280;63015;45.378;20.360;2022-11-15T03:22:05;101086.44;;;7.40;72.88
74542;BME280;63015;45.378;20.360;2022-11-15T03:24:26;101096.94;;;7.45;72.41
74542;BME280;63015;45.378;20.360;2022-11-15T03:26:48;101086.56;;;7.45;72.49
74542;BME280;63015;45.378;20.360;2022-11-15T03:29:16;101088.19;;;7.40;72.90
74542;BME280;63015;45.378;20.360;2022-11-15T03:31:40;101095.19;;;7.44;72.59
74542;BME280;63015;45.378;20.360;2022-11-15T03:34:10;101099.47;;;7.42;72.73
74542;BME280;63015;45.378;20.360;2022-11-15T03:36:32;101091.78;;;7.47;72.51
74542;BME280;63015;45.378;20.360;2022-11-15T03:38:55;101078.66;;;7.40;72.84
74542;BME280;63015;45.378;20.360;2022-11-15T03:41:22;101080.47;;;7.43;72.76
74542;BME280;63015;45.378;20.360;2022-11-15T03:46:24;101073.47;;;7.39;73.00
74542;BME280;63015;45.378;20.360;2022-11-15T03:48:48;101071.03;;;7.47;72.89
74542;BME280;63015;45.378;20.360;2022-11-15T03:51:10;101065.03;;;7.49;72.70
74542;BME280;63015;45.378;20.360;2022-11-15T03:53:30;101070.16;;;7.46;72.99
74542;BME280;63015;45.378;20.360;2022-11-15T03:55:50;101069.50;;;7.55;72.63
74542;BME280;63015;45.378;20.360;2022-11-15T03:58:09;101066.00;;;7.54;72.59
74542;BME280;63015;45.378;20.360;2022-11-15T04:00:28;101064.47;;;7.63;72.33
74542;BME280;63015;45.378;20.360;2022-11-15T04:02:48;101074.75;;;7.58;72.58
74542;BME280;63015;45.378;20.360;2022-11-15T04:05:07;101063.41;;;7.54;72.80
74542;BME280;63015;45.378;20.360;2022-11-15T04:07:26;101054.78;;;7.54;72.77
74542;BME280;63015;45.378;20.360;2022-11-15T04:09:45;101055.00;;;7.65;72.50
74542;BME280;63015;45.378;20.360;2022-11-15T04:12:22;101061.81;;;7.60;72.56
74542;BME280;63015;45.378;20.360;2022-11-15T04:14:50;101062.63;;;7.58;73.02
74542;BME280;63015;45.378;20.360;2022-11-15T04:17:25;101056.72;;;7.64;72.65
74542;BME280;63015;45.378;20.360;2022-11-15T04:19:44;101060.94;;;7.59;72.89
74542;BME280;63015;45.378;20.360;2022-11-15T04:22:22;101056.69;;;7.63;72.69
74542;BME280;63015;45.378;20.360;2022-11-15T04:25:00;101051.56;;;7.66;72.78
74542;BME280;63015;45.378;20.360;2022-11-15T04:27:18;101051.50;;;7.63;73.02
74542;BME280;63015;45.378;20.360;2022-11-15T04:29:37;101043.75;;;7.64;72.96
74542;BME280;63015;45.378;20.360;2022-11-15T04:31:56;101042.00;;;7.63;73.27
74542;BME280;63015;45.378;20.360;2022-11-15T04:34:15;101041.94;;;7.60;73.19
74542;BME280;63015;45.378;20.360;2022-11-15T04:36:34;101030.00;;;7.68;73.04
74542;BME280;63015;45.378;20.360;2022-11-15T04:39:12;101033.28;;;7.60;73.40
74542;BME280;63015;45.378;20.360;2022-11-15T04:41:31;101042.03;;;7.66;73.17
74542;BME280;63015;45.378;20.360;2022-11-15T04:43:51;101033.41;;;7.66;73.19
74542;BME280;63015;45.378;20.360;2022-11-15T04:46:10;101022.16;;;7.65;73.28
74542;BME280;63015;45.378;20.360;2022-11-15T04:48:29;101030.84;;;7.67;73.07
74542;BME280;63015;45.378;20.360;2022-11-15T04:50:48;101035.19;;;7.68;72.99
74542;BME280;63015;45.378;20.360;2022-11-15T04:53:07;101033.25;;;7.58;73.62
74542;BME280;63015;45.378;20.360;2022-11-15T04:55:26;101033.09;;;7.52;73.92
74542;BME280;63015;45.378;20.360;2022-11-15T04:57:45;101027.22;;;7.59;73.48
74542;BME280;63015;45.378;20.360;2022-11-15T05:00:09;101029.72;;;7.56;73.42
74542;BME280;63015;45.378;20.360;2022-11-15T05:02:29;101036.59;;;7.52;73.73
74542;BME280;63015;45.378;20.360;2022-11-15T05:05:08;101030.50;;;7.52;73.55
74542;BME280;63015;45.378;20.360;2022-11-15T05:07:27;101027.91;;;7.52;73.54
74542;BME280;63015;45.378;20.360;2022-11-15T05:09:46;101032.25;;;7.51;73.75
74542;BME280;63015;45.378;20.360;2022-11-15T05:12:05;101024.53;;;7.56;73.51
74542;BME280;63015;45.378;20.360;2022-11-15T05:14:24;101026.28;;;7.55;73.60
74542;BME280;63015;45.378;20.360;2022-11-15T05:16:43;101011.56;;;7.56;73.64
74542;BME280;63015;45.378;20.360;2022-11-15T05:19:03;101018.63;;;7.62;73.65
74542;BME280;63015;45.378;20.360;2022-11-15T05:21:22;101026.56;;;7.69;73.55
74542;BME280;63015;45.378;20.360;2022-11-15T05:23:41;101028.25;;;7.69;73.49
74542;BME280;63015;45.378;20.360;2022-11-15T05:26:02;101021.34;;;7.68;73.51
74542;BME280;63015;45.378;20.360;2022-11-15T05:28:21;101026.69;;;7.76;73.73
74542;BME280;63015;45.378;20.360;2022-11-15T05:30:40;101031.00;;;7.75;73.54
74542;BME280;63015;45.378;20.360;2022-11-15T05:32:59;101034.38;;;7.71;73.84
74542;BME280;63015;45.378;20.360;2022-11-15T05:35:27;101036.22;;;7.77;73.69
74542;BME280;63015;45.378;20.360;2022-11-15T05:37:49;101035.50;;;7.84;73.27
74542;BME280;63015;45.378;20.360;2022-11-15T05:40:08;101030.28;;;7.82;73.67
74542;BME280;63015;45.378;20.360;2022-11-15T05:42:27;101028.50;;;7.80;73.83
74542;BME280;63015;45.378;20.360;2022-11-15T05:44:49;101023.44;;;7.86;73.47
74542;BME280;63015;45.378;20.360;2022-11-15T05:47:11;101019.94;;;7.84;73.18
74542;BME280;63015;45.378;20.360;2022-11-15T05:49:31;101014.56;;;7.74;73.82
74542;BME280;63015;45.378;20.360;2022-11-15T05:51:53;101014.03;;;7.91;73.04
74542;BME280;63015;45.378;20.360;2022-11-15T05:54:13;101015.69;;;7.89;73.14
74542;BME280;63015;45.378;20.360;2022-11-15T05:56:32;101007.13;;;7.93;73.17
74542;BME280;63015;45.378;20.360;2022-11-15T05:58:53;101004.47;;;7.90;73.12
74542;BME280;63015;45.378;20.360;2022-11-15T06:01:14;101014.19;;;7.99;73.11
74542;BME280;63015;45.378;20.360;2022-11-15T06:03:33;101004.69;;;8.01;73.08
74542;BME280;63015;45.378;20.360;2022-11-15T06:05:52;101001.22;;;8.00;73.10
74542;BME280;63015;45.378;20.360;2022-11-15T06:08:11;101009.16;;;8.08;72.76
74542;BME280;63015;45.378;20.360;2022-11-15T06:10:30;101014.19;;;7.99;73.21
74542;BME280;63015;45.378;20.360;2022-11-15T06:13:00;100999.41;;;7.96;73.36
74542;BME280;63015;45.378;20.360;2022-11-15T06:15:19;100996.06;;;8.03;73.27
74542;BME280;63015;45.378;20.360;2022-11-15T06:17:39;100999.72;;;8.12;72.73
74542;BME280;63015;45.378;20.360;2022-11-15T06:19:57;101009.19;;;8.11;72.86
74542;BME280;63015;45.378;20.360;2022-11-15T06:22:17;101018.03;;;8.19;72.73
74542;BME280;63015;45.378;20.360;2022-11-15T06:24:36;101021.47;;;8.18;72.70
74542;BME280;63015;45.378;20.360;2022-11-15T06:26:55;101005.84;;;8.17;72.56
74542;BME280;63015;45.378;20.360;2022-11-15T06:29:14;101004.94;;;8.15;72.71
74542;BME280;63015;45.378;20.360;2022-11-15T06:31:34;101012.84;;;8.21;72.47
74542;BME280;63015;45.378;20.360;2022-11-15T06:33:53;101018.03;;;8.21;72.55
74542;BME280;63015;45.378;20.360;2022-11-15T06:36:12;101036.03;;;8.10;72.73
74542;BME280;63015;45.378;20.360;2022-11-15T06:38:35;101018.84;;;8.17;72.37
74542;BME280;63015;45.378;20.360;2022-11-15T06:40:55;101021.59;;;8.26;72.42
74542;BME280;63015;45.378;20.360;2022-11-15T06:43:14;101013.72;;;8.21;72.58
74542;BME280;63015;45.378;20.360;2022-11-15T06:45:33;101017.22;;;8.23;72.29
74542;BME280;63015;45.378;20.360;2022-11-15T06:47:52;101001.66;;;8.25;72.33
74542;BME280;63015;45.378;20.360;2022-11-15T06:50:11;101009.59;;;8.33;72.22
74542;BME280;63015;45.378;20.360;2022-11-15T06:52:30;101008.78;;;8.37;72.23
74542;BME280;63015;45.378;20.360;2022-11-15T06:54:51;101008.78;;;8.37;71.88
74542;BME280;63015;45.378;20.360;2022-11-15T06:57:10;101009.88;;;8.47;71.77
74542;BME280;63015;45.378;20.360;2022-11-15T06:59:29;101010.84;;;8.53;71.66
74542;BME280;63015;45.378;20.360;2022-11-15T07:01:49;101017.63;;;8.45;72.21
74542;BME280;63015;45.378;20.360;2022-11-15T07:04:08;101004.69;;;8.47;72.02
74542;BME280;63015;45.378;20.360;2022-11-15T07:06:27;101010.81;;;8.50;71.82
74542;BME280;63015;45.378;20.360;2022-11-15T07:08:46;101008.25;;;8.53;71.83
74542;BME280;63015;45.378;20.360;2022-11-15T07:11:07;101016.06;;;8.55;71.98
74542;BME280;63015;45.378;20.360;2022-11-15T07:13:27;101011.75;;;8.55;72.13
74542;BME280;63015;45.378;20.360;2022-11-15T07:15:47;101007.50;;;8.61;71.84
74542;BME280;63015;45.378;20.360;2022-11-15T07:18:06;101018.88;;;8.67;71.72
74542;BME280;63015;45.378;20.360;2022-11-15T07:20:25;101008.50;;;8.70;71.43
74542;BME280;63015;45.378;20.360;2022-11-15T07:22:44;101006.78;;;8.69;71.55
74542;BME280;63015;45.378;20.360;2022-11-15T07:25:06;101004.13;;;8.66;71.65
74542;BME280;63015;45.378;20.360;2022-11-15T07:27:25;100999.78;;;8.65;71.72
74542;BME280;63015;45.378;20.360;2022-11-15T07:29:44;100997.28;;;8.73;71.56
74542;BME280;63015;45.378;20.360;2022-11-15T07:32:03;100993.88;;;8.76;71.48
74542;BME280;63015;45.378;20.360;2022-11-15T07:34:22;100997.38;;;8.76;71.33
74542;BME280;63015;45.378;20.360;2022-11-15T07:36:42;100991.47;;;8.86;71.07
74542;BME280;63015;45.378;20.360;2022-11-15T07:39:01;100987.09;;;8.85;71.07
74542;BME280;63015;45.378;20.360;2022-11-15T07:41:21;100989.81;;;8.92;70.95
74542;BME280;63015;45.378;20.360;2022-11-15T07:43:40;100996.78;;;8.94;70.94
74542;BME280;63015;45.378;20.360;2022-11-15T07:46:07;100988.00;;;8.87;70.82
74542;BME280;63015;45.378;20.360;2022-11-15T07:48:28;100992.44;;;8.96;70.53
74542;BME280;63015;45.378;20.360;2022-11-15T07:50:47;100995.13;;;8.99;70.64
74542;BME280;63015;45.378;20.360;2022-11-15T07:53:08;100995.13;;;8.99;70.79
74542;BME280;63015;45.378;20.360;2022-11-15T07:55:28;100988.16;;;8.97;70.49
74542;BME280;63015;45.378;20.360;2022-11-15T07:57:48;100999.47;;;9.00;70.64
74542;BME280;63015;45.378;20.360;2022-11-15T08:00:07;100999.38;;;8.96;70.93
74542;BME280;63015;45.378;20.360;2022-11-15T08:02:26;100996.91;;;9.05;70.64
74542;BME280;63015;45.378;20.360;2022-11-15T08:04:45;100993.47;;;9.04;70.59
74542;BME280;63015;45.378;20.360;2022-11-15T08:07:04;100996.09;;;9.08;70.98
74542;BME280;63015;45.378;20.360;2022-11-15T08:09:23;100998.78;;;9.14;70.66
74542;BME280;63015;45.378;20.360;2022-11-15T08:11:42;100989.31;;;9.17;70.92
74542;BME280;63015;45.378;20.360;2022-11-15T08:14:01;100985.03;;;9.23;70.65
74542;BME280;63015;45.378;20.360;2022-11-15T08:16:20;100982.44;;;9.21;70.63
74542;BME280;63015;45.378;20.360;2022-11-15T08:18:39;100981.59;;;9.24;70.80
74542;BME280;63015;45.378;20.360;2022-11-15T08:21:00;100973.91;;;9.34;70.33
74542;BME280;63015;45.378;20.360;2022-11-15T08:23:19;100981.75;;;9.37;70.41
74542;BME280;63015;45.378;20.360;2022-11-15T08:25:38;100981.81;;;9.42;70.18
74542;BME280;63015;45.378;20.360;2022-11-15T08:28:00;100981.91;;;9.48;70.16
74542;BME280;63015;45.378;20.360;2022-11-15T08:30:20;100974.09;;;9.48;70.09
74542;BME280;63015;45.378;20.360;2022-11-15T08:32:39;100973.38;;;9.60;69.86
74542;BME280;63015;45.378;20.360;2022-11-15T08:34:58;100969.94;;;9.64;69.84
74542;BME280;63015;45.378;20.360;2022-11-15T08:37:17;100963.13;;;9.76;69.51
74542;BME280;63015;45.378;20.360;2022-11-15T08:39:35;100970.13;;;9.80;69.44
74542;BME280;63015;45.378;20.360;2022-11-15T08:41:54;100969.25;;;9.81;69.15
74542;BME280;63015;45.378;20.360;2022-11-15T08:44:13;100970.09;;;9.77;68.97
74542;BME280;63015;45.378;20.360;2022-11-15T08:46:32;100971.78;;;9.73;69.24
74542;BME280;63015;45.378;20.360;2022-11-15T08:48:51;100973.63;;;9.80;68.97
74542;BME280;63015;45.378;20.360;2022-11-15T08:51:10;100960.59;;;9.82;69.57
74542;BME280;63015;45.378;20.360;2022-11-15T08:53:29;100951.97;;;9.86;69.27
74542;BME280;63015;45.378;20.360;2022-11-15T08:55:48;100963.22;;;9.82;69.60
74542;BME280;63015;45.378;20.360;2022-11-15T08:58:07;100961.47;;;9.82;69.73
74542;BME280;63015;45.378;20.360;2022-11-15T09:00:26;100960.72;;;9.94;69.67
74542;BME280;63015;45.378;20.360;2022-11-15T09:02:45;100961.63;;;9.98;69.66
74542;BME280;63015;45.378;20.360;2022-11-15T09:05:05;100966.75;;;9.92;70.05
74542;BME280;63015;45.378;20.360;2022-11-15T09:07:25;100959.03;;;9.98;70.16
74542;BME280;63015;45.378;20.360;2022-11-15T09:09:44;100968.53;;;9.94;69.58
74542;BME280;63015;45.378;20.360;2022-11-15T09:12:04;100965.91;;;9.91;69.85
74542;BME280;63015;45.378;20.360;2022-11-15T09:14:23;100954.78;;;10.06;69.52
74542;BME280;63015;45.378;20.360;2022-11-15T09:16:42;100958.25;;;10.05;69.46
74542;BME280;63015;45.378;20.360;2022-11-15T09:19:01;100958.31;;;10.14;69.52
74542;BME280;63015;45.378;20.360;2022-11-15T09:21:20;100959.16;;;10.09;69.66
74542;BME280;63015;45.378;20.360;2022-11-15T09:23:39;100945.28;;;10.11;69.71
74542;BME280;63015;45.378;20.360;2022-11-15T09:26:02;100953.09;;;10.13;69.92
74542;BME280;63015;45.378;20.360;2022-11-15T09:28:21;100946.22;;;10.23;69.77
74542;BME280;63015;45.378;20.360;2022-11-15T09:30:40;100938.34;;;10.15;69.75
74542;BME280;63015;45.378;20.360;2022-11-15T09:33:06;100939.31;;;10.26;69.92
74542;BME280;63015;45.378;20.360;2022-11-15T09:35:25;100943.69;;;10.30;69.96
74542;BME280;63015;45.378;20.360;2022-11-15T09:37:44;100930.75;;;10.38;69.53
74542;BME280;63015;45.378;20.360;2022-11-15T09:40:04;100937.63;;;10.30;69.81
74542;BME280;63015;45.378;20.360;2022-11-15T09:50:07;100924.84;;;10.58;69.27
74542;BME280;63015;45.378;20.360;2022-11-15T09:52:11;100916.94;;;10.45;69.54
74542;BME280;63015;45.378;20.360;2022-11-15T09:56:23;100910.97;;;10.60;69.18
74542;BME280;63015;45.378;20.360;2022-11-15T09:58:55;100911.91;;;10.72;69.24
74542;BME280;63015;45.378;20.360;2022-11-15T10:00:59;100906.72;;;10.78;68.82
74542;BME280;63015;45.378;20.360;2022-11-15T10:03:16;100902.44;;;10.86;68.54
74542;BME280;63015;45.378;20.360;2022-11-15T10:05:20;100893.81;;;10.96;68.26
74542;BME280;63015;45.378;20.360;2022-11-15T10:07:46;100893.81;;;10.96;67.96
74542;BME280;63015;45.378;20.360;2022-11-15T10:12:18;100884.31;;;11.18;67.54
74542;BME280;63015;45.378;20.360;2022-11-15T10:14:24;100887.81;;;11.21;66.65
74542;BME280;63015;45.378;20.360;2022-11-15T10:18:57;100883.53;;;11.38;66.72
74542;BME280;63015;45.378;20.360;2022-11-15T10:21:20;100880.97;;;11.49;66.12
74542;BME280;63015;45.378;20.360;2022-11-15T10:23:22;100879.25;;;11.68;66.53
74542;BME280;63015;45.378;20.360;2022-11-15T10:25:25;100870.56;;;11.80;66.49
74542;BME280;63015;45.378;20.360;2022-11-15T10:27:26;100866.28;;;12.00;66.07
74542;BME280;63015;45.378;20.360;2022-11-15T10:29:27;100870.63;;;12.12;65.36
74542;BME280;63015;45.378;20.360;2022-11-15T10:31:28;100873.22;;;12.23;65.28
74542;BME280;63015;45.378;20.360;2022-11-15T10:35:30;100854.94;;;12.34;64.42
74542;BME280;63015;45.378;20.360;2022-11-15T10:37:31;100863.63;;;12.44;63.97
74542;BME280;63015;45.378;20.360;2022-11-15T10:39:32;100857.53;;;12.39;64.30
74542;BME280;63015;45.378;20.360;2022-11-15T10:41:38;100852.25;;;12.56;64.20
74542;BME280;63015;45.378;20.360;2022-11-15T10:43:39;100852.28;;;12.53;63.74
74542;BME280;63015;45.378;20.360;2022-11-15T10:45:40;100853.13;;;12.62;63.75
74542;BME280;63015;45.378;20.360;2022-11-15T10:47:41;100843.53;;;12.68;63.81
74542;BME280;63015;45.378;20.360;2022-11-15T10:50:03;100848.72;;;12.80;62.87
74542;BME280;63015;45.378;20.360;2022-11-15T10:52:18;100846.06;;;12.91;62.56
74542;BME280;63015;45.378;20.360;2022-11-15T10:56:49;100838.91;;;13.38;62.59
74542;BME280;63015;45.378;20.360;2022-11-15T10:58:56;100840.56;;;13.49;61.76
74542;BME280;63015;45.378;20.360;2022-11-15T11:01:15;100823.94;;;13.57;61.51
74542;BME280;63015;45.378;20.360;2022-11-15T11:03:34;100825.72;;;13.53;60.72
74542;BME280;63015;45.378;20.360;2022-11-15T11:05:40;100821.34;;;13.55;60.91
74542;BME280;63015;45.378;20.360;2022-11-15T11:07:40;100831.72;;;13.68;61.69
74542;BME280;63015;45.378;20.360;2022-11-15T11:09:41;100826.47;;;13.71;61.51
74542;BME280;63015;45.378;20.360;2022-11-15T11:11:47;100820.34;;;13.72;61.12
74542;BME280;63015;45.378;20.360;2022-11-15T11:13:48;100833.41;;;13.75;61.45
74542;BME280;63015;45.378;20.360;2022-11-15T11:18:07;100834.13;;;13.95;61.27
74542;BME280;63015;45.378;20.360;2022-11-15T11:31:58;100809.59;;;14.06;60.48
74542;BME280;63015;45.378;20.360;2022-11-15T11:46:01;100788.72;;;13.96;60.63
74542;BME280;63015;45.378;20.360;2022-11-15T11:48:27;100786.06;;;14.00;60.73
74542;BME280;63015;45.378;20.360;2022-11-15T11:50:32;100777.28;;;14.05;61.08
74542;BME280;63015;45.378;20.360;2022-11-15T11:52:50;100773.81;;;13.98;60.64
74542;BME280;63015;45.378;20.360;2022-11-15T11:57:32;100776.47;;;13.97;60.34
74542;BME280;63015;45.378;20.360;2022-11-15T11:59:43;100774.63;;;14.07;60.63
74542;BME280;63015;45.378;20.360;2022-11-15T12:01:48;100762.22;;;14.24;60.95
74542;BME280;63015;45.378;20.360;2022-11-15T12:06:02;100761.97;;;14.49;60.08
74542;BME280;63015;45.378;20.360;2022-11-15T12:08:19;100764.50;;;14.55;59.41
74542;BME280;63015;45.378;20.360;2022-11-15T12:10:24;100760.94;;;14.64;60.09
74542;BME280;63015;45.378;20.360;2022-11-15T12:12:38;100760.91;;;14.62;59.50
74542;BME280;63015;45.378;20.360;2022-11-15T12:16:47;100763.59;;;14.59;59.60
74542;BME280;63015;45.378;20.360;2022-11-15T12:18:50;100766.28;;;14.50;59.61
74542;BME280;63015;45.378;20.360;2022-11-15T12:23:04;100757.66;;;14.42;59.36
74542;BME280;63015;45.378;20.360;2022-11-15T12:25:20;100755.91;;;14.42;59.75
74542;BME280;63015;45.378;20.360;2022-11-15T12:27:41;100751.56;;;14.40;60.07
74542;BME280;63015;45.378;20.360;2022-11-15T12:29:46;100757.53;;;14.53;59.84
74542;BME280;63015;45.378;20.360;2022-11-15T12:31:51;100754.13;;;14.46;59.86
74542;BME280;63015;45.378;20.360;2022-11-15T12:33:57;100750.56;;;14.50;59.91
74542;BME280;63015;45.378;20.360;2022-11-15T12:36:04;100750.66;;;14.44;59.39
74542;BME280;63015;45.378;20.360;2022-11-15T12:38:09;100747.94;;;14.52;59.76
74542;BME280;63015;45.378;20.360;2022-11-15T12:40:19;100748.75;;;14.57;59.47
74542;BME280;63015;45.378;20.360;2022-11-15T12:50:56;100720.69;;;14.65;58.47
74542;BME280;63015;45.378;20.360;2022-11-15T12:55:32;100734.66;;;14.69;59.41
74542;BME280;63015;45.378;20.360;2022-11-15T12:57:37;100733.75;;;14.71;59.19
74542;BME280;63015;45.378;20.360;2022-11-15T13:00:00;100719.84;;;14.60;59.23
74542;BME280;63015;45.378;20.360;2022-11-15T13:04:30;100710.31;;;14.56;59.03
74542;BME280;63015;45.378;20.360;2022-11-15T13:06:41;100707.81;;;14.46;59.05
74542;BME280;63015;45.378;20.360;2022-11-15T13:08:45;100712.06;;;14.54;59.37
74542;BME280;63015;45.378;20.360;2022-11-15T13:10:47;100710.25;;;14.59;59.65
74542;BME280;63015;45.378;20.360;2022-11-15T13:12:50;100703.28;;;14.59;59.45
74542;BME280;63015;45.378;20.360;2022-11-15T13:17:00;100705.13;;;14.50;59.35
74542;BME280;63015;45.378;20.360;2022-11-15T13:19:02;100698.94;;;14.55;59.25
74542;BME280;63015;45.378;20.360;2022-11-15T13:21:17;100698.09;;;14.53;59.42
74542;BME280;63015;45.378;20.360;2022-11-15T13:23:38;100698.88;;;14.65;59.26
74542;BME280;63015;45.378;20.360;2022-11-15T13:26:02;100691.00;;;14.60;58.80
74542;BME280;63015;45.378;20.360;2022-11-15T13:28:20;100695.44;;;14.56;58.30
74542;BME280;63015;45.378;20.360;2022-11-15T13:30:24;100693.66;;;14.58;59.07
74542;BME280;63015;45.378;20.360;2022-11-15T13:32:25;100693.56;;;14.68;59.49
74542;BME280;63015;45.378;20.360;2022-11-15T13:34:31;100689.06;;;14.77;59.21
74542;BME280;63015;45.378;20.360;2022-11-15T13:36:36;100696.00;;;14.82;59.34
74542;BME280;63015;45.378;20.360;2022-11-15T13:38:38;100691.56;;;14.87;59.21
74542;BME280;63015;45.378;20.360;2022-11-15T13:40:39;100683.50;;;14.99;59.12
74542;BME280;63015;45.378;20.360;2022-11-15T13:42:40;100683.38;;;15.08;58.70
74542;BME280;63015;45.378;20.360;2022-11-15T13:44:55;100676.28;;;15.12;58.79